createdAt,value
2022-11-17T00:06:20.984Z,25.35
2022-11-17T00:16:22.992Z,26.15
2022-11-17T00:26:35.912Z,24.20
2022-11-17T00:36:45.831Z,25.47
2022-11-17T00:46:49.528Z,25.45
2022-11-17T00:56:52.086Z,26.67
2022-11-17T01:06:53.682Z,27.83
2022-11-17T01:16:55.904Z,29.38
2022-11-17T01:26:57.598Z,31.27
2022-11-17T01:37:17.699Z,30.75
2022-11-17T01:47:42.865Z,30.35
2022-11-17T01:57:58.683Z,32.50
2022-11-17T02:08:04.820Z,30.67
2022-11-17T02:18:06.750Z,30.70
2022-11-17T02:28:29.219Z,32.00
2022-11-17T02:38:55.387Z,28.55
2022-11-17T02:49:05.286Z,28.65
2022-11-17T02:59:07.062Z,27.10
2022-11-17T03:09:39.637Z,29.40
2022-11-17T03:19:55.172Z,30.83
2022-11-17T03:30:02.904Z,31.45
2022-11-17T03:40:10.988Z,29.85
2022-11-17T03:50:22.146Z,31.15
2022-11-17T04:00:23.987Z,30.75
2022-11-17T04:10:26.974Z,26.33
2022-11-17T04:20:36.136Z,28.63
2022-11-17T04:30:37.729Z,27.33
2022-11-17T04:41:02.500Z,26.67
2022-11-17T04:51:04.328Z,28.35
2022-11-17T05:01:14.853Z,25.50
2022-11-17T05:11:36.958Z,26.70
2022-11-17T05:21:41.153Z,27.98
2022-11-17T05:31:54.748Z,27.25
2022-11-17T05:41:56.400Z,25.27
2022-11-17T05:51:57.947Z,25.38
2022-11-17T06:02:06.379Z,27.02
2022-11-17T06:12:08.477Z,26.40
2022-11-17T06:22:12.993Z,23.63
2022-11-17T06:32:18.294Z,24.27
2022-11-17T06:42:20.269Z,23.75
2022-11-17T06:52:25.883Z,25.40
2022-11-17T07:02:27.606Z,26.55
2022-11-17T07:12:29.229Z,25.30
2022-11-17T07:22:32.967Z,24.05
2022-11-17T07:32:35.099Z,21.98
2022-11-17T07:42:39.837Z,18.65
2022-11-17T07:52:41.839Z,18.60
2022-11-17T08:02:47.733Z,17.88
2022-11-17T08:12:54.293Z,16.58
2022-11-17T08:23:00.116Z,12.63
2022-11-17T08:33:02.279Z,13.38
2022-11-17T08:43:05.192Z,12.50
2022-11-17T08:53:17.404Z,11.57
2022-11-17T09:03:19.985Z,10.15
2022-11-17T09:13:25.135Z,10.23
2022-11-17T09:23:29.654Z,9.20
2022-11-17T09:33:31.320Z,9.32
2022-11-17T09:43:39.070Z,9.23
2022-11-17T09:53:51.147Z,7.25
2022-11-17T10:04:00.193Z,7.17
2022-11-17T10:14:07.882Z,7.47
2022-11-17T10:24:09.670Z,6.75
2022-11-17T10:34:31.950Z,7.10
2022-11-17T10:45:15.933Z,8.82
2022-11-17T10:55:28.233Z,7.72
2022-11-17T11:05:31.038Z,7.75
2022-11-17T11:15:37.103Z,8.50
2022-11-17T11:25:55.899Z,8.10
2022-11-17T11:36:29.739Z,8.65
2022-11-17T11:46:56.241Z,9.32
2022-11-17T11:56:57.833Z,9.15
2022-11-17T12:07:11.354Z,8.23
2022-11-17T12:17:13.117Z,9.95
2022-11-17T12:27:36.270Z,8.73
2022-11-17T12:38:16.911Z,8.30
2022-11-17T12:48:33.478Z,7.68
2022-11-17T12:58:48.973Z,7.82
2022-11-17T13:09:04.727Z,8.52
2022-11-17T13:19:43.981Z,8.98
2022-11-17T13:29:52.444Z,8.73
2022-11-17T13:40:02.734Z,7.18
2022-11-17T13:50:34.645Z,7.45
2022-11-17T14:00:37.364Z,7.00
2022-11-17T14:10:39.974Z,7.28
2022-11-17T14:20:41.698Z,7.47
2022-11-17T14:30:47.797Z,7.70
2022-11-17T14:40:53.170Z,7.53
2022-11-17T14:50:59.410Z,9.18
2022-11-17T15:01:13.792Z,9.00
2022-11-17T15:11:17.980Z,8.93
2022-11-17T15:21:19.933Z,11.10
2022-11-17T15:31:21.854Z,11.45
2022-11-17T15:41:28.518Z,13.23
2022-11-17T15:51:34.194Z,14.70
2022-11-17T16:01:38.879Z,15.07
2022-11-17T16:11:41.281Z,15.20
2022-11-17T16:21:43.304Z,17.07
2022-11-17T16:31:48.957Z,18.67
2022-11-17T16:42:06.217Z,15.98
2022-11-17T16:52:10.588Z,14.73
2022-11-17T17:02:15.850Z,16.55
2022-11-17T17:12:18.729Z,17.73
2022-11-17T17:22:25.767Z,18.30
2022-11-17T17:32:29.623Z,15.75
2022-11-17T17:42:34.383Z,17.98
2022-11-17T17:52:37.181Z,18.50
2022-11-17T18:02:39.124Z,19.47
2022-11-17T18:12:43.776Z,19.10
2022-11-17T18:22:49.673Z,18.33
2022-11-17T18:32:54.721Z,19.30
2022-11-17T18:43:02.568Z,19.52
2022-11-17T18:53:06.702Z,19.63
2022-11-17T19:03:09.360Z,20.15
2022-11-17T19:13:11.835Z,19.97
2022-11-17T19:23:14.407Z,21.27
2022-11-17T19:33:20.659Z,23.37
2022-11-17T19:43:28.748Z,23.90
2022-11-17T19:53:38.345Z,21.63
2022-11-17T20:03:44.154Z,23.80
2022-11-17T20:13:46.337Z,22.58
2022-11-17T20:23:54.569Z,22.55
2022-11-17T20:34:05.938Z,23.42
2022-11-17T20:44:24.772Z,23.63
2022-11-17T20:54:27.293Z,24.30
2022-11-17T21:04:30.418Z,24.10
2022-11-17T21:14:34.854Z,24.35
2022-11-17T21:24:39.882Z,23.38
2022-11-17T21:34:45.639Z,26.73
2022-11-17T21:44:50.426Z,25.38
2022-11-17T21:54:53.475Z,23.02
2022-11-17T22:05:00.910Z,23.73
2022-11-17T22:15:05.081Z,23.90
2022-11-17T22:25:42.920Z,25.02
2022-11-17T22:35:39.417Z,23.53
2022-11-17T22:45:43.980Z,26.40
2022-11-17T22:55:50.028Z,26.60
2022-11-17T23:05:52.980Z,27.52
2022-11-17T23:15:55.209Z,28.43
2022-11-17T23:26:01.529Z,28.20
2022-11-17T23:36:06.172Z,28.55
2022-11-17T23:46:17.135Z,29.38
2022-11-17T23:56:22.717Z,29.83
